Time;durP1;ratioP1;P1;durP2;ratioP2;P2;SDS_P1;SDS_P2;PMS_P1;PMS_P2;Temp;Humidity;BMP_temperature;BMP_pressure;BME280_temperature;BME280_humidity;BME280_pressure;Samples;Min_cycle;Max_cycle;Signal;HPM_P1;HPM_P2
2021/01/09 00:01:14;;;;;;;0.95;0.25;;;24.40;99.90;;;;;;5041181;28;20032;-80
2021/01/09 00:03:41;;;;;;;3.58;0.38;;;24.20;99.90;;;;;;5037085;28;20060;-90
2021/01/09 00:06:08;;;;;;;2.03;0.20;;;24.40;99.90;;;;;;5039225;28;20486;-91
2021/01/09 00:08:35;;;;;;;2.97;0.35;;;24.50;99.90;;;;;;5046280;28;20164;-90
2021/01/09 00:11:03;;;;;;;1.75;0.20;;;24.70;99.90;;;;;;5017715;28;20030;-85
2021/01/09 00:13:30;;;;;;;3.45;0.15;;;24.70;99.90;;;;;;5032572;28;20076;-86
2021/01/09 00:15:57;;;;;;;1.27;0.28;;;24.20;99.90;;;;;;5024084;28;20042;-85
2021/01/09 00:18:25;;;;;;;3.58;0.20;;;24.30;99.90;;;;;;5051854;28;20025;-80
2021/01/09 00:20:52;;;;;;;5.35;0.25;;;25.10;99.90;;;;;;5027818;28;20033;-79
2021/01/09 00:23:20;;;;;;;1.90;0.30;;;25.40;99.90;;;;;;5013962;28;20397;-79
2021/01/09 00:25:47;;;;;;;2.38;0.17;;;25.10;99.90;;;;;;5039831;28;20029;-78
2021/01/09 00:28:15;;;;;;;3.95;0.30;;;24.70;99.90;;;;;;5051784;28;20094;-78
2021/01/09 00:30:42;;;;;;;1.85;0.30;;;24.30;99.90;;;;;;5032003;28;20025;-79
2021/01/09 00:33:09;;;;;;;4.03;0.30;;;23.90;99.90;;;;;;5051973;28;20025;-78
2021/01/09 00:35:37;;;;;;;1.55;0.28;;;23.50;99.90;;;;;;5049826;28;20029;-78
2021/01/09 00:38:04;;;;;;;1.73;0.95;;;23.20;99.90;;;;;;5051798;28;20024;-79
2021/01/09 00:40:31;;;;;;;2.00;0.50;;;23.00;99.90;;;;;;5049847;28;20071;-78
2021/01/09 00:42:58;;;;;;;3.42;0.43;;;23.00;99.90;;;;;;5051782;28;20017;-80
2021/01/09 00:45:26;;;;;;;4.45;0.82;;;23.00;99.90;;;;;;5048502;28;20471;-80
2021/01/09 00:47:53;;;;;;;5.72;0.50;;;23.10;99.90;;;;;;5050443;28;20449;-79
2021/01/09 00:50:20;;;;;;;3.10;0.22;;;23.10;99.90;;;;;;5047080;28;20025;-77
2021/01/09 00:52:48;;;;;;;1.55;0.10;;;23.10;99.90;;;;;;5051294;28;20086;-79
2021/01/09 00:55:15;;;;;;;2.13;0.10;;;23.20;99.90;;;;;;5092023;22;20132;-81
2021/01/09 00:57:42;;;;;;;2.63;0.45;;;23.40;99.90;;;;;;5080557;22;20083;-81
2021/01/09 01:00:10;;;;;;;2.20;0.30;;;23.60;99.90;;;;;;5063230;28;20793;-78
2021/01/09 01:02:38;;;;;;;1.95;0.28;;;23.70;99.90;;;;;;5043931;23;20060;-80
2021/01/09 01:05:06;;;;;;;1.85;0.20;;;23.30;99.90;;;;;;5031274;28;20030;-79
2021/01/09 01:07:35;;;;;;;3.13;0.20;;;24.40;99.90;;;;;;5051201;28;20505;-79
2021/01/09 01:10:05;;;;;;;2.45;0.30;;;25.00;99.90;;;;;;5075070;22;20044;-80
2021/01/09 01:12:32;;;;;;;1.23;0.20;;;25.60;99.90;;;;;;5075497;28;20420;-81
2021/01/09 01:15:00;;;;;;;1.33;0.28;;;25.90;99.90;;;;;;5073234;28;20041;-80
2021/01/09 01:17:27;;;;;;;3.28;0.30;;;26.00;99.90;;;;;;5075305;28;20023;-81
2021/01/09 01:19:55;;;;;;;1.77;0.30;;;25.80;99.90;;;;;;5073395;28;20043;-78
2021/01/09 01:22:22;;;;;;;0.70;0.20;;;24.90;99.90;;;;;;5075139;28;20380;-80
2021/01/09 01:24:49;;;;;;;3.38;0.35;;;24.00;99.90;;;;;;5070301;28;20024;-79
2021/01/09 01:27:20;;;;;;;4.40;0.28;;;23.60;99.90;;;;;;5081258;23;20130;-80
2021/01/09 01:29:50;;;;;;;2.78;0.32;;;23.50;99.90;;;;;;5036338;28;20043;-82
2021/01/09 01:32:17;;;;;;;2.60;0.60;;;24.00;99.90;;;;;;5037246;28;20032;-79
2021/01/09 01:34:45;;;;;;;1.08;0.20;;;24.20;99.90;;;;;;5035818;28;20033;-80
2021/01/09 01:37:12;;;;;;;0.80;0.20;;;24.10;99.90;;;;;;5066615;22;20048;-83
2021/01/09 01:39:39;;;;;;;1.25;0.22;;;24.50;99.90;;;;;;5053508;28;20540;-79
2021/01/09 01:42:07;;;;;;;1.10;0.17;;;25.30;99.90;;;;;;5053381;28;20474;-81
2021/01/09 01:44:34;;;;;;;1.80;0.10;;;25.20;99.90;;;;;;5050922;28;20029;-79
2021/01/09 01:47:03;;;;;;;2.20;0.10;;;24.90;99.90;;;;;;5052597;28;20079;-81
2021/01/09 01:49:31;;;;;;;2.55;0.40;;;24.60;99.90;;;;;;5054499;28;20027;-84
2021/01/09 01:51:58;;;;;;;2.67;0.10;;;24.60;99.90;;;;;;5052698;28;20025;-80
2021/01/09 01:54:26;;;;;;;1.60;0.30;;;25.60;99.90;;;;;;5052535;28;20045;-80
2021/01/09 01:56:57;;;;;;;3.13;0.50;;;26.50;99.90;;;;;;5052477;28;20102;-81
2021/01/09 01:59:24;;;;;;;1.27;0.17;;;26.20;99.90;;;;;;5065407;22;20063;-81
2021/01/09 02:01:51;;;;;;;1.45;0.20;;;25.50;99.90;;;;;;5010309;28;20117;-83
2021/01/09 02:04:19;;;;;;;3.38;0.20;;;25.10;99.90;;;;;;5014675;28;20482;-80
2021/01/09 02:06:48;;;;;;;2.55;0.10;;;24.70;99.90;;;;;;5030366;28;20027;-81
2021/01/09 02:09:22;;;;;;;1.80;0.30;;;24.20;99.90;;;;;;5034142;28;20049;-81
2021/01/09 02:11:52;;;;;;;1.58;0.17;;;24.70;99.90;;;;;;5032199;28;20026;-82
2021/01/09 02:14:32;;;;;;;2.85;0.20;;;25.40;99.90;;;;;;5033816;28;20031;-81
2021/01/09 02:17:00;;;;;;;1.50;0.10;;;25.60;99.80;;;;;;5031939;28;20037;-83
2021/01/09 02:19:29;;;;;;;1.80;0.57;;;25.90;99.90;;;;;;5033312;28;20024;-83
2021/01/09 02:22:00;;;;;;;1.60;0.20;;;26.40;99.90;;;;;;5031884;28;20033;-84
2021/01/09 02:24:27;;;;;;;3.90;0.57;;;26.20;99.90;;;;;;5033697;28;20010;-84
2021/01/09 02:26:54;;;;;;;2.20;0.25;;;26.30;99.40;;;;;;5031702;28;20128;-83
2021/01/09 02:29:24;;;;;;;0.95;0.25;;;24.90;99.90;;;;;;5033828;28;20030;-84
2021/01/09 02:32:00;;;;;;;1.42;0.30;;;24.70;99.90;;;;;;5018788;28;20089;-83
2021/01/09 02:34:37;;;;;;;1.70;0.30;;;24.70;99.90;;;;;;5026722;28;20029;-83
2021/01/09 02:37:05;;;;;;;1.55;0.10;;;24.50;99.90;;;;;;5026426;28;20437;-82
2021/01/09 02:39:32;;;;;;;3.42;0.30;;;25.00;99.90;;;;;;5031660;28;20035;-83
2021/01/09 02:42:01;;;;;;;2.28;0.40;;;25.90;99.90;;;;;;5031644;28;20030;-83
2021/01/09 02:44:29;;;;;;;1.40;0.20;;;26.30;99.80;;;;;;5015616;28;20076;-81
2021/01/09 02:46:56;;;;;;;1.00;0.17;;;26.10;99.60;;;;;;5031391;28;20479;-82
2021/01/09 02:49:24;;;;;;;2.67;0.20;;;25.90;98.90;;;;;;5021823;28;20416;-82
2021/01/09 02:51:51;;;;;;;2.33;0.20;;;25.60;99.90;;;;;;5031605;28;20018;-82
2021/01/09 02:54:18;;;;;;;0.80;0.20;;;25.90;99.90;;;;;;5032716;28;20037;-83
2021/01/09 02:56:45;;;;;;;1.10;0.35;;;26.10;99.40;;;;;;5030569;28;20113;-82
2021/01/09 02:59:13;;;;;;;2.50;0.20;;;26.00;99.70;;;;;;5032689;28;20049;-82
2021/01/09 03:01:40;;;;;;;0.38;0.10;;;26.30;99.40;;;;;;5062338;23;20049;-83
2021/01/09 03:04:08;;;;;;;1.48;0.20;;;26.50;98.50;;;;;;5046426;22;20060;-82
2021/01/09 03:06:35;;;;;;;1.33;0.20;;;26.50;97.90;;;;;;5067286;28;20059;-78
2021/01/09 03:09:03;;;;;;;2.08;0.68;;;26.10;98.00;;;;;;5077334;22;20049;-81
2021/01/09 03:11:30;;;;;;;2.95;0.22;;;25.70;98.20;;;;;;5050864;28;20075;-80
2021/01/09 03:13:57;;;;;;;1.08;0.45;;;25.70;98.30;;;;;;5052688;28;20040;-82
2021/01/09 03:16:24;;;;;;;0.47;0.00;;;25.70;98.90;;;;;;5057253;22;20099;-81
2021/01/09 03:18:52;;;;;;;1.15;0.35;;;26.30;99.90;;;;;;5052005;28;20033;-79
2021/01/09 03:21:19;;;;;;;0.80;0.15;;;26.20;97.60;;;;;;5050396;28;20029;-82
2021/01/09 03:23:46;;;;;;;2.95;0.30;;;26.60;97.70;;;;;;5052391;28;20111;-82
2021/01/09 03:26:14;;;;;;;1.17;0.10;;;26.00;97.60;;;;;;5050543;28;20032;-83
2021/01/09 03:28:41;;;;;;;3.22;0.10;;;25.90;97.50;;;;;;5052205;28;20517;-82
2021/01/09 03:31:08;;;;;;;2.20;0.30;;;25.60;97.90;;;;;;5046166;28;20113;-82
2021/01/09 03:33:35;;;;;;;1.30;0.20;;;25.60;99.70;;;;;;5074551;22;20087;-81
2021/01/09 03:36:04;;;;;;;1.83;0.13;;;26.00;97.90;;;;;;5070576;28;20584;-81
2021/01/09 03:38:31;;;;;;;1.40;0.20;;;25.70;97.40;;;;;;5034581;28;20039;-86
2021/01/09 03:40:58;;;;;;;1.42;0.20;;;25.40;97.50;;;;;;5050522;28;20025;-80
2021/01/09 03:43:26;;;;;;;2.83;0.30;;;25.30;97.60;;;;;;5046133;28;20021;-81
2021/01/09 03:45:54;;;;;;;1.95;0.10;;;25.60;98.30;;;;;;5044909;28;20025;-81
2021/01/09 03:48:21;;;;;;;2.65;0.20;;;25.80;97.20;;;;;;5051983;28;20021;-79
2021/01/09 03:50:48;;;;;;;1.52;0.17;;;25.40;97.70;;;;;;5051189;28;20025;-81
2021/01/09 03:53:16;;;;;;;4.20;0.63;;;25.40;98.50;;;;;;5049398;28;20043;-82
2021/01/09 03:55:43;;;;;;;2.67;0.10;;;25.80;97.30;;;;;;5050668;28;20115;-82
2021/01/09 03:58:10;;;;;;;1.35;0.28;;;25.50;97.60;;;;;;5051630;28;20132;-82
2021/01/09 04:00:38;;;;;;;0.50;0.20;;;25.50;97.60;;;;;;5050694;28;20123;-81
2021/01/09 04:03:05;;;;;;;1.63;0.20;;;25.50;97.70;;;;;;5050373;28;20029;-82
2021/01/09 04:05:32;;;;;;;2.67;0.20;;;25.70;97.00;;;;;;5049522;28;20040;-83
2021/01/09 04:08:00;;;;;;;0.88;0.35;;;25.40;96.80;;;;;;5059112;22;20044;-81
2021/01/09 04:10:27;;;;;;;0.57;0.30;;;25.20;97.20;;;;;;5049748;28;20060;-84
2021/01/09 04:12:54;;;;;;;1.08;0.20;;;25.30;99.40;;;;;;5051959;28;20051;-83
2021/01/09 04:15:21;;;;;;;1.42;0.10;;;25.30;97.60;;;;;;5049868;28;20041;-81
2021/01/09 04:17:49;;;;;;;1.33;0.20;;;25.40;99.10;;;;;;5051839;28;20023;-82
2021/01/09 04:20:16;;;;;;;0.77;0.20;;;25.20;97.50;;;;;;5049635;28;20585;-84
2021/01/09 04:22:43;;;;;;;3.05;0.63;;;24.90;97.00;;;;;;5051212;28;20029;-83
2021/01/09 04:25:11;;;;;;;1.05;0.10;;;24.50;97.20;;;;;;5049233;28;20029;-82
2021/01/09 04:27:39;;;;;;;1.05;0.13;;;24.50;98.00;;;;;;5033357;28;20075;-82
2021/01/09 04:30:07;;;;;;;1.45;0.28;;;24.50;99.90;;;;;;5049464;28;20025;-81
2021/01/09 04:32:34;;;;;;;0.77;0.10;;;24.60;98.20;;;;;;5050049;28;20017;-81
2021/01/09 04:35:02;;;;;;;1.60;0.30;;;24.50;98.30;;;;;;5049565;28;20052;-83
2021/01/09 04:37:30;;;;;;;2.45;0.30;;;24.50;98.90;;;;;;5044986;28;20037;-80
2021/01/09 04:39:57;;;;;;;3.85;0.68;;;24.50;97.70;;;;;;5049436;28;20025;-82
2021/01/09 04:42:24;;;;;;;2.20;0.10;;;24.80;98.70;;;;;;5051345;28;20021;-82
2021/01/09 04:44:52;;;;;;;2.33;0.20;;;24.80;97.90;;;;;;5049535;28;20017;-83
2021/01/09 04:47:19;;;;;;;3.20;0.30;;;24.50;99.50;;;;;;5033392;28;20386;-82
2021/01/09 04:49:47;;;;;;;1.42;0.20;;;24.50;99.80;;;;;;5031778;28;20037;-82
2021/01/09 04:52:14;;;;;;;1.88;0.10;;;24.50;99.70;;;;;;5050638;28;20499;-80
2021/01/09 04:54:43;;;;;;;1.30;0.20;;;24.50;98.90;;;;;;5050171;28;20033;-82
2021/01/09 04:57:10;;;;;;;2.67;0.30;;;24.50;99.60;;;;;;5050186;28;20375;-80
2021/01/09 04:59:39;;;;;;;1.95;0.52;;;24.50;99.40;;;;;;5050447;28;20507;-81
2021/01/09 05:02:07;;;;;;;1.13;0.25;;;24.40;99.00;;;;;;5050672;28;20021;-80
2021/01/09 05:04:35;;;;;;;0.90;0.15;;;24.40;99.60;;;;;;5050969;28;20100;-82
2021/01/09 05:07:02;;;;;;;1.88;0.25;;;24.40;99.90;;;;;;5065796;23;20046;-80
2021/01/09 05:09:30;;;;;;;1.27;0.05;;;24.20;99.80;;;;;;5065994;22;20541;-83
2021/01/09 05:11:57;;;;;;;1.42;0.20;;;24.20;99.90;;;;;;5065980;22;20041;-82
2021/01/09 05:14:28;;;;;;;0.90;0.20;;;24.30;99.90;;;;;;5033156;28;20090;-82
2021/01/09 05:16:59;;;;;;;3.30;0.40;;;24.30;99.90;;;;;;5065190;23;20049;-81
2021/01/09 05:19:31;;;;;;;0.55;0.10;;;24.40;99.90;;;;;;5036733;28;20101;-82
2021/01/09 05:22:00;;;;;;;2.03;0.13;;;24.20;99.60;;;;;;5029658;28;20392;-85
2021/01/09 05:24:28;;;;;;;1.58;0.40;;;24.10;99.90;;;;;;5065156;22;20083;-82
2021/01/09 05:26:55;;;;;;;1.63;0.40;;;23.70;99.90;;;;;;5068831;28;20111;-83
2021/01/09 05:29:23;;;;;;;2.72;0.40;;;23.40;99.90;;;;;;5034360;28;20090;-83
2021/01/09 05:31:50;;;;;;;1.05;0.13;;;23.50;99.90;;;;;;5065996;28;20548;-83
2021/01/09 05:34:18;;;;;;;1.45;0.13;;;23.70;99.90;;;;;;5070229;28;20121;-83
2021/01/09 05:36:46;;;;;;;2.65;0.30;;;23.90;99.90;;;;;;5068674;28;20142;-80
2021/01/09 05:39:13;;;;;;;2.78;0.20;;;24.00;99.90;;;;;;5071075;28;20021;-81
2021/01/09 05:41:42;;;;;;;1.50;0.10;;;23.80;99.90;;;;;;5062360;22;20060;-81
2021/01/09 05:44:12;;;;;;;3.08;0.13;;;24.00;99.90;;;;;;5048176;28;20029;-84
2021/01/09 05:46:41;;;;;;;1.88;0.10;;;24.00;99.90;;;;;;5048968;28;20029;-82
2021/01/09 05:49:10;;;;;;;1.33;0.10;;;23.90;99.90;;;;;;5032597;28;20076;-83
2021/01/09 05:51:38;;;;;;;1.08;0.20;;;23.80;99.90;;;;;;5048927;28;20359;-80
2021/01/09 05:54:06;;;;;;;5.30;0.50;;;23.90;99.90;;;;;;5034884;28;20056;-80
2021/01/09 05:56:41;;;;;;;2.40;0.40;;;24.00;99.90;;;;;;5049641;28;20032;-83
2021/01/09 05:59:10;;;;;;;4.13;0.32;;;24.00;99.90;;;;;;5034915;28;20030;-81
2021/01/09 06:01:41;;;;;;;0.95;0.20;;;24.00;99.90;;;;;;5049365;28;20068;-82
2021/01/09 06:04:18;;;;;;;0.95;0.10;;;24.10;99.90;;;;;;5036134;28;20366;-82
2021/01/09 06:07:01;;;;;;;0.95;0.17;;;24.20;99.90;;;;;;5052774;28;20025;-82
2021/01/09 06:09:34;;;;;;;0.40;0.20;;;24.20;99.90;;;;;;5035024;28;20029;-83
2021/01/09 06:12:06;;;;;;;1.35;0.20;;;24.10;99.90;;;;;;5051304;28;20029;-81
2021/01/09 06:14:37;;;;;;;2.33;0.60;;;23.70;99.90;;;;;;5054559;23;20053;-82
2021/01/09 06:17:04;;;;;;;3.35;0.20;;;23.70;99.90;;;;;;5052285;28;20048;-83
2021/01/09 06:19:32;;;;;;;0.55;0.10;;;23.40;99.90;;;;;;5053453;28;20013;-83
2021/01/09 06:21:59;;;;;;;0.65;0.25;;;23.60;99.90;;;;;;5048820;28;20029;-83
2021/01/09 06:24:27;;;;;;;1.70;0.20;;;23.70;99.90;;;;;;5053377;28;20032;-83
2021/01/09 06:26:55;;;;;;;1.98;0.47;;;23.60;99.90;;;;;;5044878;28;20486;-85
2021/01/09 06:29:31;;;;;;;4.75;0.45;;;23.50;99.90;;;;;;5051802;28;20025;-82
2021/01/09 06:32:00;;;;;;;1.58;0.40;;;23.60;99.90;;;;;;5051636;28;20029;-83
2021/01/09 06:34:29;;;;;;;0.88;0.20;;;23.60;99.90;;;;;;5053670;28;20036;-84
2021/01/09 06:37:04;;;;;;;0.75;0.20;;;23.60;99.90;;;;;;5049711;28;20546;-83
2021/01/09 06:39:35;;;;;;;0.75;0.20;;;23.60;99.90;;;;;;5036072;28;20076;-83
2021/01/09 06:42:06;;;;;;;1.40;0.30;;;23.50;99.90;;;;;;5052214;28;20318;-83
2021/01/09 06:44:34;;;;;;;2.45;0.20;;;23.50;99.90;;;;;;5053865;28;20033;-83
2021/01/09 06:47:01;;;;;;;1.73;0.20;;;23.50;99.90;;;;;;5052008;28;20033;-84
2021/01/09 06:49:29;;;;;;;2.05;0.30;;;23.50;99.90;;;;;;5052956;28;20100;-83
2021/01/09 06:52:02;;;;;;;3.30;0.30;;;23.40;99.90;;;;;;5052336;28;20508;-84
2021/01/09 06:54:45;;;;;;;0.82;0.20;;;23.30;99.90;;;;;;5052083;28;20096;-84
2021/01/09 06:57:17;;;;;;;2.70;0.73;;;23.30;99.90;;;;;;5053095;28;20080;-84
2021/01/09 06:59:50;;;;;;;1.85;0.30;;;23.10;99.90;;;;;;5046314;28;20033;-84
2021/01/09 07:02:22;;;;;;;2.13;0.20;;;23.20;99.90;;;;;;5033142;28;20029;-81
2021/01/09 07:05:10;;;;;;;0.95;0.28;;;23.20;99.90;;;;;;5033477;28;20096;-83
2021/01/09 07:07:39;;;;;;;3.90;0.35;;;23.30;99.90;;;;;;5050849;28;20439;-83
2021/01/09 07:10:15;;;;;;;2.47;0.50;;;23.20;99.90;;;;;;5050611;28;20021;-82
2021/01/09 07:12:49;;;;;;;2.28;0.45;;;23.20;99.90;;;;;;5053438;28;20025;-81
2021/01/09 07:15:17;;;;;;;2.83;0.65;;;23.10;99.90;;;;;;5093532;22;20405;-81
2021/01/09 07:17:51;;;;;;;2.83;0.38;;;23.10;99.90;;;;;;5071255;22;20011;-82
2021/01/09 07:20:21;;;;;;;1.85;0.20;;;23.10;99.90;;;;;;5070609;28;20040;-83
2021/01/09 07:22:52;;;;;;;3.38;0.20;;;22.90;99.90;;;;;;5071784;22;20524;-83
2021/01/09 07:25:39;;;;;;;2.10;0.50;;;22.80;99.90;;;;;;5050844;28;20021;-83
2021/01/09 07:28:11;;;;;;;3.78;0.57;;;22.80;99.90;;;;;;5032827;28;20394;-83
2021/01/09 07:33:11;;;;;;;2.25;0.32;;;22.90;99.90;;;;;;5068683;22;20049;-85
2021/01/09 07:35:46;;;;;;;1.17;0.20;;;22.80;99.90;;;;;;5050421;28;20090;-82
2021/01/09 07:38:14;;;;;;;2.97;0.38;;;22.70;99.90;;;;;;5049270;28;20052;-83
2021/01/09 07:40:49;;;;;;;1.00;0.30;;;22.80;99.90;;;;;;5050672;28;20021;-83
2021/01/09 07:43:48;;;;;;;3.80;0.57;;;22.80;99.90;;;;;;5052556;28;20424;-85
2021/01/09 07:46:32;;;;;;;2.45;0.20;;;22.60;99.90;;;;;;5018404;28;20037;-83
2021/01/09 07:49:02;;;;;;;3.28;0.30;;;22.60;99.90;;;;;;5059758;22;20081;-83
2021/01/09 07:51:49;;;;;;;2.65;0.40;;;22.50;99.90;;;;;;5049256;28;20037;-85
2021/01/09 07:54:38;;;;;;;2.72;0.20;;;22.40;99.90;;;;;;5052105;28;20126;-83
2021/01/09 07:57:22;;;;;;;2.53;0.22;;;22.30;99.90;;;;;;5033504;28;20520;-85
2021/01/09 07:59:55;;;;;;;1.43;0.20;;;22.20;99.90;;;;;;5050186;28;20033;-85
2021/01/09 08:02:33;;;;;;;1.63;0.30;;;22.30;99.90;;;;;;5027176;28;20655;-84
2021/01/09 08:05:11;;;;;;;2.30;0.43;;;22.10;99.90;;;;;;5049718;28;20082;-82
2021/01/09 08:07:55;;;;;;;1.88;0.20;;;22.00;99.90;;;;;;5051958;28;20093;-84
2021/01/09 08:10:24;;;;;;;1.92;0.15;;;22.00;99.90;;;;;;5029741;28;22379;-83
2021/01/09 08:13:08;;;;;;;2.67;0.32;;;21.90;99.90;;;;;;5014386;28;20034;-83
2021/01/09 08:15:37;;;;;;;2.97;0.40;;;21.90;99.90;;;;;;5041140;28;20029;-84
2021/01/09 08:18:06;;;;;;;2.25;0.40;;;21.90;99.90;;;;;;5051600;28;20029;-82
2021/01/09 08:20:34;;;;;;;3.03;0.40;;;21.80;99.90;;;;;;5057590;23;20052;-83
2021/01/09 08:23:06;;;;;;;5.57;0.43;;;21.80;99.90;;;;;;5051141;28;20029;-84
2021/01/09 08:25:36;;;;;;;3.22;0.55;;;21.70;99.90;;;;;;5048516;28;20025;-84
2021/01/09 08:28:04;;;;;;;2.25;0.60;;;21.60;99.90;;;;;;5051207;28;20028;-83
2021/01/09 08:30:33;;;;;;;1.55;0.20;;;21.60;99.90;;;;;;5049468;28;20028;-82
2021/01/09 08:33:16;;;;;;;1.45;0.22;;;21.60;99.90;;;;;;5051412;28;20049;-82
2021/01/09 08:35:52;;;;;;;3.45;0.22;;;21.60;99.90;;;;;;5031678;28;20033;-83
2021/01/09 08:38:27;;;;;;;2.40;0.45;;;21.60;99.90;;;;;;5051291;28;20501;-84
2021/01/09 08:40:58;;;;;;;1.45;0.50;;;21.50;99.90;;;;;;5047523;28;20029;-83
2021/01/09 08:43:26;;;;;;;4.68;0.50;;;21.40;99.90;;;;;;5051204;28;20025;-84
2021/01/09 08:45:54;;;;;;;3.13;0.43;;;21.40;99.90;;;;;;5049415;28;20509;-83
2021/01/09 08:48:30;;;;;;;2.55;0.55;;;21.40;99.90;;;;;;5032787;28;20127;-83
2021/01/09 08:51:14;;;;;;;3.78;0.75;;;21.30;99.90;;;;;;5049099;28;20037;-82
2021/01/09 08:53:51;;;;;;;2.80;0.60;;;21.40;99.90;;;;;;5048775;28;20120;-83
2021/01/09 08:56:29;;;;;;;3.13;0.45;;;21.20;99.90;;;;;;5046703;28;20029;-83
2021/01/09 08:59:05;;;;;;;6.63;0.75;;;21.30;99.90;;;;;;5043798;28;20025;-83
2021/01/09 09:01:56;;;;;;;1.45;0.25;;;21.30;99.90;;;;;;5030363;28;20033;-83
2021/01/09 09:04:23;;;;;;;2.50;0.47;;;21.20;99.90;;;;;;5031212;28;20033;-83
2021/01/09 09:07:05;;;;;;;2.08;0.22;;;21.20;99.90;;;;;;5047808;28;20108;-83
2021/01/09 09:09:34;;;;;;;2.22;0.40;;;21.10;99.90;;;;;;5050755;28;20033;-83
2021/01/09 09:12:01;;;;;;;2.10;0.40;;;21.10;99.90;;;;;;5048245;28;20056;-82
2021/01/09 09:14:29;;;;;;;2.47;0.32;;;21.10;99.90;;;;;;5049298;28;20082;-82
2021/01/09 09:17:01;;;;;;;1.05;0.10;;;21.10;99.90;;;;;;5049066;28;20095;-83
2021/01/09 09:19:34;;;;;;;2.55;0.57;;;21.10;99.90;;;;;;5029729;28;20029;-83
2021/01/09 09:22:01;;;;;;;3.65;0.30;;;21.10;99.90;;;;;;5070790;22;20464;-83
2021/01/09 09:26:58;;;;;;;6.63;0.63;;;21.20;99.90;;;;;;5074460;22;20053;-82
2021/01/09 09:29:32;;;;;;;2.47;0.63;;;21.10;99.90;;;;;;5065873;22;20045;-83
2021/01/09 09:31:59;;;;;;;2.10;0.40;;;21.00;99.90;;;;;;5047117;28;20032;-84
2021/01/09 09:34:28;;;;;;;2.10;0.35;;;21.00;99.90;;;;;;5052829;28;20036;-82
2021/01/09 09:37:01;;;;;;;1.65;0.40;;;21.00;99.90;;;;;;5052276;28;20039;-82
2021/01/09 09:39:29;;;;;;;4.33;0.20;;;21.00;99.90;;;;;;5066435;23;20056;-82
2021/01/09 09:41:57;;;;;;;2.33;0.50;;;21.00;99.90;;;;;;5055143;28;20396;-82
2021/01/09 09:44:56;;;;;;;2.00;0.45;;;21.00;99.90;;;;;;5074331;28;20032;-83
2021/01/09 09:47:28;;;;;;;4.78;0.55;;;21.00;99.90;;;;;;5026484;28;20035;-82
2021/01/09 09:50:00;;;;;;;2.95;0.50;;;20.90;99.90;;;;;;5071313;28;20025;-82
2021/01/09 09:52:27;;;;;;;4.50;0.63;;;21.00;99.90;;;;;;5041527;28;20012;-82
2021/01/09 09:55:05;;;;;;;2.00;0.40;;;20.90;99.90;;;;;;5090090;22;21520;-81
2021/01/09 09:57:33;;;;;;;2.45;0.40;;;20.90;99.90;;;;;;5073129;28;20043;-82
2021/01/09 10:00:07;;;;;;;2.70;0.43;;;20.90;99.90;;;;;;5069671;28;20588;-81
2021/01/09 10:02:35;;;;;;;3.63;0.50;;;20.90;99.90;;;;;;5071773;28;20130;-82
2021/01/09 10:05:13;;;;;;;2.42;0.60;;;20.90;99.90;;;;;;5070749;28;20032;-82
2021/01/09 10:07:40;;;;;;;1.98;0.70;;;20.90;99.90;;;;;;5073972;28;20021;-81
2021/01/09 10:10:21;;;;;;;2.25;0.40;;;20.90;99.90;;;;;;5071402;28;20509;-81
2021/01/09 10:12:58;;;;;;;2.58;0.73;;;20.90;99.90;;;;;;5073691;28;20052;-81
2021/01/09 10:15:26;;;;;;;3.60;0.50;;;20.90;99.90;;;;;;5066141;28;20068;-80
2021/01/09 10:17:54;;;;;;;3.88;0.38;;;20.90;99.90;;;;;;5073721;28;20023;-80
2021/01/09 10:20:22;;;;;;;3.97;0.47;;;20.80;99.90;;;;;;5071694;28;20103;-81
2021/01/09 10:22:49;;;;;;;2.60;0.40;;;20.80;99.90;;;;;;5073548;28;20021;-81
2021/01/09 10:25:17;;;;;;;3.22;0.40;;;20.80;99.90;;;;;;5053585;28;20032;-81
2021/01/09 10:27:44;;;;;;;2.65;0.65;;;20.70;99.90;;;;;;5089677;22;20025;-80
2021/01/09 10:30:12;;;;;;;5.60;1.40;;;20.70;99.90;;;;;;5049690;28;20037;-81
2021/01/09 10:32:40;;;;;;;2.97;0.30;;;20.70;99.90;;;;;;5053509;28;20547;-82
2021/01/09 10:35:08;;;;;;;1.42;0.20;;;20.70;99.90;;;;;;5047878;28;20120;-81
2021/01/09 10:37:35;;;;;;;3.22;0.68;;;20.70;99.90;;;;;;5053209;28;20021;-81
2021/01/09 10:40:03;;;;;;;2.45;0.20;;;20.60;99.90;;;;;;5050625;28;20059;-81
2021/01/09 10:42:30;;;;;;;0.98;0.10;;;20.50;99.90;;;;;;5052724;28;20041;-82
2021/01/09 10:44:58;;;;;;;3.67;0.30;;;20.60;99.90;;;;;;5048532;28;20029;-82
2021/01/09 10:47:25;;;;;;;3.88;0.68;;;20.60;99.90;;;;;;5053014;28;20093;-82
2021/01/09 10:49:52;;;;;;;2.60;0.60;;;20.50;99.90;;;;;;5050875;28;20040;-82
2021/01/09 10:52:19;;;;;;;2.00;0.70;;;20.50;99.90;;;;;;5051601;28;20120;-82
2021/01/09 10:54:47;;;;;;;3.35;0.40;;;20.50;99.90;;;;;;5051369;28;20426;-82
2021/01/09 10:57:14;;;;;;;1.88;0.50;;;20.40;99.90;;;;;;5033008;28;20044;-82
2021/01/09 10:59:41;;;;;;;5.93;0.75;;;20.50;99.90;;;;;;5032985;28;20136;-82
2021/01/09 11:02:09;;;;;;;3.72;0.43;;;20.50;99.90;;;;;;5052232;28;20033;-82
2021/01/09 11:04:37;;;;;;;3.00;0.30;;;20.50;99.90;;;;;;5052914;28;20029;-82
2021/01/09 11:07:04;;;;;;;1.13;0.50;;;20.40;99.90;;;;;;5051732;28;20060;-82
2021/01/09 11:09:31;;;;;;;1.80;0.20;;;20.50;99.90;;;;;;5051334;28;20056;-82
2021/01/09 11:11:58;;;;;;;1.48;0.50;;;20.40;99.90;;;;;;5049458;28;20561;-82
2021/01/09 11:14:26;;;;;;;3.67;0.25;;;20.40;99.90;;;;;;5051425;28;20033;-82
2021/01/09 11:16:59;;;;;;;1.75;0.20;;;20.40;99.90;;;;;;5050877;28;20025;-82
2021/01/09 11:19:27;;;;;;;3.00;0.30;;;20.30;99.90;;;;;;5052642;28;20017;-82
2021/01/09 11:22:03;;;;;;;1.75;0.30;;;20.30;99.90;;;;;;5050757;28;20031;-82
2021/01/09 11:24:34;;;;;;;2.20;0.40;;;20.30;99.90;;;;;;5052115;28;20600;-82
2021/01/09 11:27:06;;;;;;;4.60;0.22;;;20.30;99.90;;;;;;5050447;28;20486;-82
2021/01/09 11:29:33;;;;;;;3.58;1.15;;;20.30;99.90;;;;;;5086596;22;20060;-81
2021/01/09 11:32:02;;;;;;;2.00;0.30;;;20.30;99.90;;;;;;5066497;22;20040;-82
2021/01/09 11:34:30;;;;;;;2.42;0.30;;;20.20;99.90;;;;;;5052366;28;20056;-82
2021/01/09 11:36:58;;;;;;;2.22;0.60;;;20.20;99.90;;;;;;5073987;22;20083;-82
2021/01/09 11:39:26;;;;;;;2.97;0.30;;;20.20;99.90;;;;;;5047742;28;20533;-82
2021/01/09 11:41:58;;;;;;;1.05;0.20;;;20.10;99.90;;;;;;5069045;28;20046;-82
2021/01/09 11:44:27;;;;;;;1.58;0.22;;;20.10;99.90;;;;;;5071839;28;20106;-82
2021/01/09 11:46:57;;;;;;;0.75;0.20;;;20.10;99.90;;;;;;5068842;22;20053;-82
2021/01/09 11:49:25;;;;;;;0.63;0.20;;;20.10;99.90;;;;;;5050075;28;20029;-82
2021/01/09 11:51:55;;;;;;;5.28;0.55;;;20.10;99.90;;;;;;5049186;28;20107;-82
2021/01/09 11:54:23;;;;;;;2.05;0.25;;;20.00;99.90;;;;;;5032726;28;20157;-82
2021/01/09 11:56:55;;;;;;;3.80;0.77;;;20.00;99.90;;;;;;5049475;28;20047;-82
2021/01/09 11:59:23;;;;;;;2.85;0.30;;;20.00;99.90;;;;;;5051622;28;20020;-82
2021/01/09 12:01:50;;;;;;;2.45;0.60;;;20.00;99.90;;;;;;5059171;23;20025;-82
2021/01/09 12:04:17;;;;;;;2.55;0.40;;;20.00;99.90;;;;;;5070094;28;20024;-82
2021/01/09 12:06:45;;;;;;;3.75;0.63;;;20.00;99.90;;;;;;5068317;28;20033;-82
2021/01/09 12:09:12;;;;;;;2.40;0.30;;;20.00;99.90;;;;;;5071438;28;20027;-82
2021/01/09 12:11:39;;;;;;;3.42;0.57;;;19.90;99.90;;;;;;5068002;28;20020;-82
2021/01/09 12:14:07;;;;;;;5.45;0.63;;;19.90;99.90;;;;;;5055509;28;20020;-82
2021/01/09 12:16:35;;;;;;;3.22;0.40;;;19.90;99.90;;;;;;5068691;28;20029;-82
2021/01/09 12:19:03;;;;;;;1.25;0.28;;;19.90;99.90;;;;;;5069698;28;20017;-82
2021/01/09 12:21:30;;;;;;;1.70;0.40;;;19.90;99.90;;;;;;5069485;28;20535;-82
2021/01/09 12:23:58;;;;;;;3.88;0.40;;;19.80;99.90;;;;;;5071561;28;20048;-83
2021/01/09 12:26:26;;;;;;;2.20;0.30;;;19.70;99.90;;;;;;5068580;28;20150;-82
2021/01/09 12:28:53;;;;;;;2.25;0.55;;;19.70;99.90;;;;;;5062811;28;20488;-82
2021/01/09 12:31:32;;;;;;;2.60;0.35;;;19.70;99.90;;;;;;5062995;28;20085;-82
2021/01/09 12:34:01;;;;;;;1.45;0.30;;;19.80;99.90;;;;;;5065646;28;20496;-82
2021/01/09 12:36:28;;;;;;;3.58;0.38;;;19.70;99.90;;;;;;5071524;22;20060;-82
2021/01/09 12:38:55;;;;;;;3.03;0.30;;;19.80;99.90;;;;;;5051170;28;20017;-82
2021/01/09 12:41:36;;;;;;;3.28;0.43;;;19.80;99.90;;;;;;5049839;28;20112;-82
2021/01/09 12:44:05;;;;;;;2.30;0.32;;;19.70;99.90;;;;;;5051171;28;20045;-82
2021/01/09 12:46:44;;;;;;;1.08;0.40;;;19.70;99.90;;;;;;5050149;28;20021;-82
2021/01/09 12:49:18;;;;;;;4.80;0.75;;;19.80;99.90;;;;;;5050886;28;20060;-82
2021/01/09 12:51:47;;;;;;;4.10;0.40;;;19.70;99.90;;;;;;5049397;28;20043;-83
2021/01/09 12:54:14;;;;;;;3.53;0.55;;;19.70;99.90;;;;;;5049663;28;20055;-83
2021/01/09 12:56:42;;;;;;;2.60;0.38;;;19.60;99.90;;;;;;5048991;28;20029;-83
2021/01/09 12:59:11;;;;;;;2.72;0.30;;;19.60;99.90;;;;;;5051008;28;20520;-83
2021/01/09 13:01:46;;;;;;;2.72;0.38;;;19.60;99.90;;;;;;5049251;28;20025;-83
2021/01/09 13:04:15;;;;;;;2.25;0.55;;;19.60;99.90;;;;;;5054274;28;20032;-83
2021/01/09 13:06:47;;;;;;;0.68;0.30;;;19.50;99.90;;;;;;5052246;28;20032;-81